sensor_id;sensor_type;location;lat;lon;timestamp;pressure;altitude;pressure_sealevel;temperature;humidity
43420;BME280;29017;51.514;-0.178;2023-05-11T00:01:54;101005.59;;;15.17;78.51
43420;BME280;29017;51.514;-0.178;2023-05-11T00:04:24;100999.63;;;15.15;78.34
43420;BME280;29017;51.514;-0.178;2023-05-11T00:06:51;100999.00;;;15.13;78.28
43420;BME280;29017;51.514;-0.178;2023-05-11T00:09:20;100991.38;;;15.10;78.14
43420;BME280;29017;51.514;-0.178;2023-05-11T00:11:48;100998.22;;;15.04;77.28
43420;BME280;29017;51.514;-0.178;2023-05-11T00:14:15;100993.94;;;15.03;77.28
43420;BME280;29017;51.514;-0.178;2023-05-11T00:16:42;100995.75;;;15.03;77.29
43420;BME280;29017;51.514;-0.178;2023-05-11T00:19:09;101003.88;;;15.01;77.15
43420;BME280;29017;51.514;-0.178;2023-05-11T00:21:37;100993.81;;;14.96;76.68
43420;BME280;29017;51.514;-0.178;2023-05-11T00:24:05;100989.69;;;14.94;76.62
43420;BME280;29017;51.514;-0.178;2023-05-11T00:26:32;100989.03;;;14.92;76.64
43420;BME280;29017;51.514;-0.178;2023-05-11T00:29:00;100986.56;;;14.90;77.24
43420;BME280;29017;51.514;-0.178;2023-05-11T00:31:27;100995.50;;;14.89;77.54
43420;BME280;29017;51.514;-0.178;2023-05-11T00:33:56;100998.81;;;14.91;77.84
43420;BME280;29017;51.514;-0.178;2023-05-11T00:36:23;100998.97;;;14.90;77.01
43420;BME280;29017;51.514;-0.178;2023-05-11T00:38:50;100991.56;;;14.85;77.33
43420;BME280;29017;51.514;-0.178;2023-05-11T00:41:18;100998.22;;;14.81;77.16
43420;BME280;29017;51.514;-0.178;2023-05-11T00:43:47;100992.81;;;14.75;77.29
43420;BME280;29017;51.514;-0.178;2023-05-11T00:46:14;100994.63;;;14.74;78.37
43420;BME280;29017;51.514;-0.178;2023-05-11T00:48:42;100993.16;;;14.72;78.29
43420;BME280;29017;51.514;-0.178;2023-05-11T00:51:10;100990.69;;;14.70;77.91
43420;BME280;29017;51.514;-0.178;2023-05-11T00:53:39;101004.09;;;14.69;78.79
43420;BME280;29017;51.514;-0.178;2023-05-11T00:56:06;100999.00;;;14.67;78.49
43420;BME280;29017;51.514;-0.178;2023-05-11T00:58:35;100999.97;;;14.66;78.80
43420;BME280;29017;51.514;-0.178;2023-05-11T01:01:02;101001.81;;;14.66;79.21
43420;BME280;29017;51.514;-0.178;2023-05-11T01:03:31;100998.50;;;14.64;79.57
43420;BME280;29017;51.514;-0.178;2023-05-11T01:06:04;101001.50;;;14.61;79.03
43420;BME280;29017;51.514;-0.178;2023-05-11T01:08:46;101007.16;;;14.58;79.26
43420;BME280;29017;51.514;-0.178;2023-05-11T01:11:22;101007.84;;;14.51;79.47
43420;BME280;29017;51.514;-0.178;2023-05-11T01:13:55;101004.53;;;14.49;79.70
43420;BME280;29017;51.514;-0.178;2023-05-11T01:16:28;101006.34;;;14.49;79.54
43420;BME280;29017;51.514;-0.178;2023-05-11T01:19:11;101004.91;;;14.46;80.44
43420;BME280;29017;51.514;-0.178;2023-05-11T01:21:46;101011.84;;;14.47;80.80
43420;BME280;29017;51.514;-0.178;2023-05-11T01:24:25;101003.91;;;14.47;81.08
43420;BME280;29017;51.514;-0.178;2023-05-11T01:27:05;101006.41;;;14.41;80.94
43420;BME280;29017;51.514;-0.178;2023-05-11T01:32:18;101007.59;;;14.30;82.33
43420;BME280;29017;51.514;-0.178;2023-05-11T01:34:54;101012.53;;;14.33;83.28
43420;BME280;29017;51.514;-0.178;2023-05-11T01:37:24;101013.72;;;14.31;82.92
43420;BME280;29017;51.514;-0.178;2023-05-11T01:39:56;101012.41;;;14.27;82.81
43420;BME280;29017;51.514;-0.178;2023-05-11T01:42:31;101015.38;;;14.24;82.37
43420;BME280;29017;51.514;-0.178;2023-05-11T01:45:03;101018.72;;;14.18;82.10
43420;BME280;29017;51.514;-0.178;2023-05-11T01:47:33;101022.69;;;14.13;82.71
43420;BME280;29017;51.514;-0.178;2023-05-11T01:50:03;101020.22;;;14.12;83.96
43420;BME280;29017;51.514;-0.178;2023-05-11T01:52:34;101024.22;;;14.08;83.79
43420;BME280;29017;51.514;-0.178;2023-05-11T01:55:04;101028.19;;;14.04;83.47
43420;BME280;29017;51.514;-0.178;2023-05-11T01:57:35;101022.59;;;13.99;83.54
43420;BME280;29017;51.514;-0.178;2023-05-11T02:00:05;101026.22;;;13.98;84.24
43420;BME280;29017;51.514;-0.178;2023-05-11T02:02:34;101019.94;;;13.99;84.96
43420;BME280;29017;51.514;-0.178;2023-05-11T02:05:04;101031.50;;;13.98;84.32
43420;BME280;29017;51.514;-0.178;2023-05-11T02:07:34;101020.28;;;13.96;84.92
43420;BME280;29017;51.514;-0.178;2023-05-11T02:10:03;101034.34;;;13.96;84.84
43420;BME280;29017;51.514;-0.178;2023-05-11T02:12:31;101037.16;;;13.95;84.35
43420;BME280;29017;51.514;-0.178;2023-05-11T02:15:00;101036.50;;;13.93;84.68
43420;BME280;29017;51.514;-0.178;2023-05-11T02:17:31;101029.53;;;13.92;84.81
43420;BME280;29017;51.514;-0.178;2023-05-11T02:20:01;101034.19;;;13.90;84.98
43420;BME280;29017;51.514;-0.178;2023-05-11T02:22:31;101032.38;;;13.90;85.88
43420;BME280;29017;51.514;-0.178;2023-05-11T02:24:59;101047.59;;;13.88;85.28
43420;BME280;29017;51.514;-0.178;2023-05-11T02:27:26;101042.28;;;13.88;85.30
43420;BME280;29017;51.514;-0.178;2023-05-11T02:29:54;101033.38;;;13.89;85.17
43420;BME280;29017;51.514;-0.178;2023-05-11T02:32:22;101048.25;;;13.90;85.02
43420;BME280;29017;51.514;-0.178;2023-05-11T02:34:59;101047.59;;;13.88;85.29
43420;BME280;29017;51.514;-0.178;2023-05-11T02:37:29;101034.03;;;13.91;85.70
43420;BME280;29017;51.514;-0.178;2023-05-11T02:39:59;101036.34;;;13.94;85.80
43420;BME280;29017;51.514;-0.178;2023-05-11T02:42:28;101033.34;;;13.97;85.20
43420;BME280;29017;51.514;-0.178;2023-05-11T02:45:00;101041.28;;;13.97;85.01
43420;BME280;29017;51.514;-0.178;2023-05-11T02:47:32;101044.44;;;13.93;84.72
43420;BME280;29017;51.514;-0.178;2023-05-11T02:50:04;101045.41;;;13.92;85.24
43420;BME280;29017;51.514;-0.178;2023-05-11T02:52:34;101047.41;;;13.90;85.21
43420;BME280;29017;51.514;-0.178;2023-05-11T02:55:06;101048.72;;;13.94;85.80
43420;BME280;29017;51.514;-0.178;2023-05-11T02:57:34;101057.34;;;13.96;85.59
43420;BME280;29017;51.514;-0.178;2023-05-11T03:00:01;101042.44;;;13.95;85.60
43420;BME280;29017;51.514;-0.178;2023-05-11T03:02:31;101049.91;;;13.91;85.26
43420;BME280;29017;51.514;-0.178;2023-05-11T03:04:58;101055.69;;;13.87;84.85
43420;BME280;29017;51.514;-0.178;2023-05-11T03:07:26;101043.97;;;13.81;85.15
43420;BME280;29017;51.514;-0.178;2023-05-11T03:09:54;101052.72;;;13.82;86.54
43420;BME280;29017;51.514;-0.178;2023-05-11T03:12:21;101050.91;;;13.82;86.12
43420;BME280;29017;51.514;-0.178;2023-05-11T03:14:49;101046.44;;;13.83;85.86
43420;BME280;29017;51.514;-0.178;2023-05-11T03:17:18;101047.25;;;13.83;86.03
43420;BME280;29017;51.514;-0.178;2023-05-11T03:19:47;101045.78;;;13.81;86.08
43420;BME280;29017;51.514;-0.178;2023-05-11T03:22:15;101049.91;;;13.83;86.33
43420;BME280;29017;51.514;-0.178;2023-05-11T03:24:42;101048.75;;;13.86;87.34
43420;BME280;29017;51.514;-0.178;2023-05-11T03:27:10;101049.59;;;13.86;87.49
43420;BME280;29017;51.514;-0.178;2023-05-11T03:29:39;101045.78;;;13.81;86.75
43420;BME280;29017;51.514;-0.178;2023-05-11T03:32:09;101052.38;;;13.77;86.47
43420;BME280;29017;51.514;-0.178;2023-05-11T03:34:36;101042.16;;;13.74;86.56
43420;BME280;29017;51.514;-0.178;2023-05-11T03:37:04;101042.31;;;13.72;86.41
43420;BME280;29017;51.514;-0.178;2023-05-11T03:39:34;101042.66;;;13.69;86.64
43420;BME280;29017;51.514;-0.178;2023-05-11T03:42:04;101035.56;;;13.61;86.92
43420;BME280;29017;51.514;-0.178;2023-05-11T03:44:32;101039.22;;;13.60;87.40
43420;BME280;29017;51.514;-0.178;2023-05-11T03:47:02;101042.03;;;13.59;87.59
43420;BME280;29017;51.514;-0.178;2023-05-11T03:49:30;101040.34;;;13.58;87.28
43420;BME280;29017;51.514;-0.178;2023-05-11T03:51:58;101039.38;;;13.59;87.26
43420;BME280;29017;51.514;-0.178;2023-05-11T03:54:25;101040.69;;;13.55;86.80
43420;BME280;29017;51.514;-0.178;2023-05-11T03:56:53;101045.31;;;13.53;88.12
43420;BME280;29017;51.514;-0.178;2023-05-11T03:59:21;101040.03;;;13.53;88.02
43420;BME280;29017;51.514;-0.178;2023-05-11T04:01:49;101040.50;;;13.56;88.42
43420;BME280;29017;51.514;-0.178;2023-05-11T04:04:19;101040.19;;;13.59;88.69
43420;BME280;29017;51.514;-0.178;2023-05-11T04:06:47;101039.22;;;13.60;88.41
43420;BME280;29017;51.514;-0.178;2023-05-11T04:09:14;101041.19;;;13.58;88.18
43420;BME280;29017;51.514;-0.178;2023-05-11T04:11:42;101039.53;;;13.57;88.27
43420;BME280;29017;51.514;-0.178;2023-05-11T04:14:10;101044.50;;;13.60;88.58
43420;BME280;29017;51.514;-0.178;2023-05-11T04:16:37;101045.34;;;13.61;88.67
43420;BME280;29017;51.514;-0.178;2023-05-11T04:19:05;101046.97;;;13.62;88.63
43420;BME280;29017;51.514;-0.178;2023-05-11T04:21:33;101044.81;;;13.57;88.62
43420;BME280;29017;51.514;-0.178;2023-05-11T04:24:03;101040.88;;;13.53;88.67
43420;BME280;29017;51.514;-0.178;2023-05-11T04:26:30;101046.00;;;13.55;88.95
43420;BME280;29017;51.514;-0.178;2023-05-11T04:28:58;101043.16;;;13.56;89.64
43420;BME280;29017;51.514;-0.178;2023-05-11T04:31:25;101052.59;;;13.59;89.89
43420;BME280;29017;51.514;-0.178;2023-05-11T04:33:52;101049.78;;;13.60;89.02
43420;BME280;29017;51.514;-0.178;2023-05-11T04:36:20;101053.56;;;13.58;88.69
43420;BME280;29017;51.514;-0.178;2023-05-11T04:38:48;101046.63;;;13.57;88.87
43420;BME280;29017;51.514;-0.178;2023-05-11T04:41:15;101045.50;;;13.59;88.91
43420;BME280;29017;51.514;-0.178;2023-05-11T04:43:42;101049.59;;;13.62;89.27
43420;BME280;29017;51.514;-0.178;2023-05-11T04:46:10;101049.44;;;13.63;89.25
43420;BME280;29017;51.514;-0.178;2023-05-11T04:48:37;101053.91;;;13.63;88.93
43420;BME280;29017;51.514;-0.178;2023-05-11T04:51:05;101053.06;;;13.62;89.11
43420;BME280;29017;51.514;-0.178;2023-05-11T04:53:32;101056.53;;;13.63;89.34
43420;BME280;29017;51.514;-0.178;2023-05-11T04:56:00;101050.28;;;13.64;89.37
43420;BME280;29017;51.514;-0.178;2023-05-11T04:58:27;101055.06;;;13.68;89.29
43420;BME280;29017;51.514;-0.178;2023-05-11T05:00:54;101050.44;;;13.70;90.07
43420;BME280;29017;51.514;-0.178;2023-05-11T05:03:22;101054.72;;;13.71;89.10
43420;BME280;29017;51.514;-0.178;2023-05-11T05:05:50;101057.19;;;13.73;88.53
43420;BME280;29017;51.514;-0.178;2023-05-11T05:08:17;101058.84;;;13.74;88.53
43420;BME280;29017;51.514;-0.178;2023-05-11T05:10:46;101061.84;;;13.71;88.21
43420;BME280;29017;51.514;-0.178;2023-05-11T05:13:13;101060.81;;;13.72;88.40
43420;BME280;29017;51.514;-0.178;2023-05-11T05:15:42;101067.63;;;13.75;88.89
43420;BME280;29017;51.514;-0.178;2023-05-11T05:18:10;101068.44;;;13.75;89.05
43420;BME280;29017;51.514;-0.178;2023-05-11T05:20:37;101066.94;;;13.81;88.90
43420;BME280;29017;51.514;-0.178;2023-05-11T05:23:05;101070.75;;;13.86;88.80
43420;BME280;29017;51.514;-0.178;2023-05-11T05:25:33;101075.53;;;13.91;88.21
43420;BME280;29017;51.514;-0.178;2023-05-11T05:28:00;101078.81;;;13.93;87.89
43420;BME280;29017;51.514;-0.178;2023-05-11T05:30:27;101079.50;;;13.95;87.65
43420;BME280;29017;51.514;-0.178;2023-05-11T05:32:55;101086.44;;;13.96;87.12
43420;BME280;29017;51.514;-0.178;2023-05-11T05:35:22;101081.97;;;13.96;87.29
43420;BME280;29017;51.514;-0.178;2023-05-11T05:37:49;101088.91;;;13.97;87.47
43420;BME280;29017;51.514;-0.178;2023-05-11T05:40:17;101089.41;;;14.01;87.70
43420;BME280;29017;51.514;-0.178;2023-05-11T05:42:45;101092.88;;;14.01;87.14
43420;BME280;29017;51.514;-0.178;2023-05-11T05:45:14;101090.34;;;14.08;87.08
43420;BME280;29017;51.514;-0.178;2023-05-11T05:47:41;101093.50;;;14.11;87.91
43420;BME280;29017;51.514;-0.178;2023-05-11T05:50:09;101093.84;;;14.17;87.55
43420;BME280;29017;51.514;-0.178;2023-05-11T05:52:37;101097.28;;;14.17;86.61
43420;BME280;29017;51.514;-0.178;2023-05-11T05:55:05;101098.94;;;14.18;86.25
43420;BME280;29017;51.514;-0.178;2023-05-11T05:57:32;101095.78;;;14.23;85.83
43420;BME280;29017;51.514;-0.178;2023-05-11T06:00:00;101097.28;;;14.25;85.90
43420;BME280;29017;51.514;-0.178;2023-05-11T06:02:27;101096.09;;;14.28;86.16
43420;BME280;29017;51.514;-0.178;2023-05-11T06:04:54;101101.22;;;14.29;85.68
43420;BME280;29017;51.514;-0.178;2023-05-11T06:07:22;101102.06;;;14.30;85.77
43420;BME280;29017;51.514;-0.178;2023-05-11T06:09:49;101099.41;;;14.30;85.53
43420;BME280;29017;51.514;-0.178;2023-05-11T06:12:17;101097.06;;;14.35;85.20
43420;BME280;29017;51.514;-0.178;2023-05-11T06:14:44;101100.22;;;14.46;84.91
43420;BME280;29017;51.514;-0.178;2023-05-11T06:17:11;101106.41;;;14.70;84.06
43420;BME280;29017;51.514;-0.178;2023-05-11T06:19:38;101105.34;;;14.79;83.97
43420;BME280;29017;51.514;-0.178;2023-05-11T06:22:06;101110.28;;;14.90;82.71
43420;BME280;29017;51.514;-0.178;2023-05-11T06:24:33;101108.69;;;15.04;82.20
43420;BME280;29017;51.514;-0.178;2023-05-11T06:27:01;101114.16;;;15.33;81.40
43420;BME280;29017;51.514;-0.178;2023-05-11T06:29:28;101114.13;;;15.64;80.02
43420;BME280;29017;51.514;-0.178;2023-05-11T06:31:56;101109.16;;;16.13;78.11
43420;BME280;29017;51.514;-0.178;2023-05-11T06:34:24;101115.88;;;16.38;75.95
43420;BME280;29017;51.514;-0.178;2023-05-11T06:36:51;101110.56;;;16.38;75.71
43420;BME280;29017;51.514;-0.178;2023-05-11T06:39:19;101118.78;;;16.43;75.50
43420;BME280;29017;51.514;-0.178;2023-05-11T06:41:46;101114.75;;;16.47;74.93
43420;BME280;29017;51.514;-0.178;2023-05-11T06:44:13;101106.44;;;16.50;75.03
43420;BME280;29017;51.514;-0.178;2023-05-11T06:46:41;101117.50;;;16.54;74.68
43420;BME280;29017;51.514;-0.178;2023-05-11T06:49:08;101121.81;;;16.55;74.77
43420;BME280;29017;51.514;-0.178;2023-05-11T06:51:35;101121.81;;;16.55;74.74
43420;BME280;29017;51.514;-0.178;2023-05-11T06:54:03;101123.94;;;16.45;75.04
43420;BME280;29017;51.514;-0.178;2023-05-11T06:56:31;101123.66;;;16.25;75.22
43420;BME280;29017;51.514;-0.178;2023-05-11T06:59:00;101121.72;;;16.04;76.02
43420;BME280;29017;51.514;-0.178;2023-05-11T07:01:28;101129.13;;;15.94;76.57
43420;BME280;29017;51.514;-0.178;2023-05-11T07:03:55;101125.50;;;15.87;77.13
43420;BME280;29017;51.514;-0.178;2023-05-11T07:06:23;101119.19;;;15.73;77.59
43420;BME280;29017;51.514;-0.178;2023-05-11T07:08:50;101127.69;;;15.69;78.26
43420;BME280;29017;51.514;-0.178;2023-05-11T07:11:17;101128.31;;;15.71;78.58
43420;BME280;29017;51.514;-0.178;2023-05-11T07:13:49;101128.13;;;15.72;78.70
43420;BME280;29017;51.514;-0.178;2023-05-11T07:16:17;101126.78;;;15.76;78.64
43420;BME280;29017;51.514;-0.178;2023-05-11T07:18:48;101122.75;;;15.80;77.96
43420;BME280;29017;51.514;-0.178;2023-05-11T07:21:21;101130.44;;;15.90;77.85
43420;BME280;29017;51.514;-0.178;2023-05-11T07:23:49;101121.78;;;15.96;77.69
43420;BME280;29017;51.514;-0.178;2023-05-11T07:26:19;101131.69;;;16.02;77.60
43420;BME280;29017;51.514;-0.178;2023-05-11T07:28:50;101125.38;;;16.03;77.10
43420;BME280;29017;51.514;-0.178;2023-05-11T07:31:17;101125.19;;;16.05;77.37
43420;BME280;29017;51.514;-0.178;2023-05-11T07:33:45;101132.78;;;16.08;77.22
43420;BME280;29017;51.514;-0.178;2023-05-11T07:36:15;101129.03;;;16.32;76.64
43420;BME280;29017;51.514;-0.178;2023-05-11T07:38:48;101131.16;;;16.80;75.75
43420;BME280;29017;51.514;-0.178;2023-05-11T07:41:16;101129.00;;;17.62;74.00
43420;BME280;29017;51.514;-0.178;2023-05-11T07:43:45;101142.03;;;18.62;69.11
43420;BME280;29017;51.514;-0.178;2023-05-11T07:46:12;101143.63;;;19.10;65.66
43420;BME280;29017;51.514;-0.178;2023-05-11T07:48:41;101141.00;;;19.17;63.53
43420;BME280;29017;51.514;-0.178;2023-05-11T07:51:08;101141.72;;;18.91;63.92
43420;BME280;29017;51.514;-0.178;2023-05-11T07:53:35;101146.47;;;18.89;63.88
43420;BME280;29017;51.514;-0.178;2023-05-11T07:56:03;101148.47;;;18.80;64.11
43420;BME280;29017;51.514;-0.178;2023-05-11T07:58:31;101151.66;;;19.04;68.05
43420;BME280;29017;51.514;-0.178;2023-05-11T08:00:58;101144.94;;;19.34;66.01
43420;BME280;29017;51.514;-0.178;2023-05-11T08:03:26;101145.00;;;19.47;65.08
43420;BME280;29017;51.514;-0.178;2023-05-11T08:05:54;101140.91;;;19.64;64.31
43420;BME280;29017;51.514;-0.178;2023-05-11T08:08:23;101146.66;;;20.07;64.12
43420;BME280;29017;51.514;-0.178;2023-05-11T08:10:50;101150.28;;;20.66;60.65
43420;BME280;29017;51.514;-0.178;2023-05-11T08:13:18;101153.97;;;20.65;59.27
43420;BME280;29017;51.514;-0.178;2023-05-11T08:15:45;101153.03;;;20.33;59.80
43420;BME280;29017;51.514;-0.178;2023-05-11T08:18:13;101149.31;;;20.07;60.80
43420;BME280;29017;51.514;-0.178;2023-05-11T08:20:40;101148.13;;;19.84;61.66
43420;BME280;29017;51.514;-0.178;2023-05-11T08:23:08;101146.84;;;19.67;62.17
43420;BME280;29017;51.514;-0.178;2023-05-11T08:25:36;101145.84;;;19.54;62.40
43420;BME280;29017;51.514;-0.178;2023-05-11T08:28:03;101149.72;;;19.45;62.24
43420;BME280;29017;51.514;-0.178;2023-05-11T08:30:36;101155.41;;;19.36;62.84
43420;BME280;29017;51.514;-0.178;2023-05-11T08:33:03;101158.69;;;19.25;62.52
43420;BME280;29017;51.514;-0.178;2023-05-11T08:35:50;101154.28;;;18.97;64.89
43420;BME280;29017;51.514;-0.178;2023-05-11T08:38:18;101160.91;;;18.67;64.35
43420;BME280;29017;51.514;-0.178;2023-05-11T08:40:46;101155.69;;;18.52;64.66
43420;BME280;29017;51.514;-0.178;2023-05-11T08:43:14;101158.88;;;18.41;64.90
43420;BME280;29017;51.514;-0.178;2023-05-11T08:45:43;101155.56;;;18.32;65.69
43420;BME280;29017;51.514;-0.178;2023-05-11T08:48:14;101155.28;;;18.21;65.73
43420;BME280;29017;51.514;-0.178;2023-05-11T08:50:44;101155.47;;;18.19;66.64
43420;BME280;29017;51.514;-0.178;2023-05-11T08:53:12;101154.63;;;18.19;66.40
43420;BME280;29017;51.514;-0.178;2023-05-11T08:55:43;101155.94;;;18.29;65.85
43420;BME280;29017;51.514;-0.178;2023-05-11T08:58:13;101169.53;;;18.41;64.15
43420;BME280;29017;51.514;-0.178;2023-05-11T09:00:48;101157.53;;;18.52;63.39
43420;BME280;29017;51.514;-0.178;2023-05-11T09:03:19;101163.81;;;19.19;62.60
43420;BME280;29017;51.514;-0.178;2023-05-11T09:05:51;101158.13;;;20.54;56.87
43420;BME280;29017;51.514;-0.178;2023-05-11T09:08:30;101163.56;;;21.93;51.63
43420;BME280;29017;51.514;-0.178;2023-05-11T09:10:59;101170.56;;;22.43;49.84
43420;BME280;29017;51.514;-0.178;2023-05-11T09:13:29;101164.50;;;22.05;50.88
43420;BME280;29017;51.514;-0.178;2023-05-11T09:16:04;101163.38;;;21.31;52.04
43420;BME280;29017;51.514;-0.178;2023-05-11T09:18:50;101158.75;;;20.56;55.00
43420;BME280;29017;51.514;-0.178;2023-05-11T09:21:23;101157.75;;;20.04;57.09
43420;BME280;29017;51.514;-0.178;2023-05-11T09:23:51;101164.31;;;19.62;58.82
43420;BME280;29017;51.514;-0.178;2023-05-11T09:26:21;101158.06;;;19.22;60.45
43420;BME280;29017;51.514;-0.178;2023-05-11T09:28:52;101152.63;;;18.96;61.26
43420;BME280;29017;51.514;-0.178;2023-05-11T09:34:13;101154.94;;;18.58;63.33
43420;BME280;29017;51.514;-0.178;2023-05-11T09:36:42;101163.69;;;18.52;63.69
43420;BME280;29017;51.514;-0.178;2023-05-11T09:39:11;101154.44;;;18.48;61.83
43420;BME280;29017;51.514;-0.178;2023-05-11T09:41:42;101149.28;;;18.47;61.40
43420;BME280;29017;51.514;-0.178;2023-05-11T09:44:12;101157.72;;;18.50;62.33
43420;BME280;29017;51.514;-0.178;2023-05-11T09:46:41;101151.22;;;18.59;60.48
43420;BME280;29017;51.514;-0.178;2023-05-11T09:49:10;101151.91;;;18.74;59.73
43420;BME280;29017;51.514;-0.178;2023-05-11T09:51:39;101148.88;;;18.77;58.23
43420;BME280;29017;51.514;-0.178;2023-05-11T09:54:18;101161.56;;;18.75;58.91
43420;BME280;29017;51.514;-0.178;2023-05-11T09:56:49;101159.31;;;18.72;60.04
43420;BME280;29017;51.514;-0.178;2023-05-11T09:59:36;101160.72;;;18.68;59.30
43420;BME280;29017;51.514;-0.178;2023-05-11T10:02:24;101161.69;;;18.61;58.89
43420;BME280;29017;51.514;-0.178;2023-05-11T10:04:54;101154.84;;;18.52;59.67
43420;BME280;29017;51.514;-0.178;2023-05-11T10:07:28;101155.03;;;18.44;59.06
43420;BME280;29017;51.514;-0.178;2023-05-11T10:09:57;101150.06;;;18.41;58.52
43420;BME280;29017;51.514;-0.178;2023-05-11T10:12:26;101144.31;;;18.37;58.55
43420;BME280;29017;51.514;-0.178;2023-05-11T10:14:58;101145.72;;;18.33;59.44
43420;BME280;29017;51.514;-0.178;2023-05-11T10:17:28;101147.56;;;18.32;58.78
43420;BME280;29017;51.514;-0.178;2023-05-11T10:19:57;101148.00;;;18.36;60.21
43420;BME280;29017;51.514;-0.178;2023-05-11T10:22:27;101141.66;;;18.37;60.02
43420;BME280;29017;51.514;-0.178;2023-05-11T10:24:58;101147.41;;;18.41;60.77
43420;BME280;29017;51.514;-0.178;2023-05-11T10:27:27;101142.06;;;18.41;60.85
43420;BME280;29017;51.514;-0.178;2023-05-11T10:29:57;101142.06;;;18.41;59.77
43420;BME280;29017;51.514;-0.178;2023-05-11T10:32:26;101144.75;;;18.41;58.92
43420;BME280;29017;51.514;-0.178;2023-05-11T10:34:57;101139.22;;;18.42;58.51
43420;BME280;29017;51.514;-0.178;2023-05-11T10:37:44;101142.47;;;18.37;58.42
43420;BME280;29017;51.514;-0.178;2023-05-11T10:40:12;101137.97;;;18.38;57.40
43420;BME280;29017;51.514;-0.178;2023-05-11T10:45:22;101153.38;;;18.43;57.31
43420;BME280;29017;51.514;-0.178;2023-05-11T11:04:22;101137.28;;;18.57;61.13
43420;BME280;29017;51.514;-0.178;2023-05-11T11:07:03;101137.03;;;18.52;61.76
43420;BME280;29017;51.514;-0.178;2023-05-11T11:12:19;101137.97;;;18.38;63.01
43420;BME280;29017;51.514;-0.178;2023-05-11T11:17:30;101143.59;;;18.22;63.75
43420;BME280;29017;51.514;-0.178;2023-05-11T11:20:00;101142.53;;;18.16;63.82
43420;BME280;29017;51.514;-0.178;2023-05-11T11:25:49;101137.75;;;18.05;63.57
43420;BME280;29017;51.514;-0.178;2023-05-11T11:28:02;101132.75;;;17.95;62.99
43420;BME280;29017;51.514;-0.178;2023-05-11T11:30:29;101122.88;;;17.89;63.86
43420;BME280;29017;51.514;-0.178;2023-05-11T11:38:12;101127.78;;;17.86;64.54
43420;BME280;29017;51.514;-0.178;2023-05-11T11:40:42;101122.03;;;17.89;64.18
43420;BME280;29017;51.514;-0.178;2023-05-11T11:43:15;101125.34;;;17.91;64.06
43420;BME280;29017;51.514;-0.178;2023-05-11T11:45:56;101128.88;;;17.98;63.38
43420;BME280;29017;51.514;-0.178;2023-05-11T11:48:33;101125.50;;;18.11;61.88
43420;BME280;29017;51.514;-0.178;2023-05-11T11:51:03;101129.47;;;18.21;61.61
43420;BME280;29017;51.514;-0.178;2023-05-11T12:01:12;101125.00;;;18.01;59.66
43420;BME280;29017;51.514;-0.178;2023-05-11T12:03:42;101120.50;;;18.01;59.30
43420;BME280;29017;51.514;-0.178;2023-05-11T12:06:11;101126.66;;;18.02;59.35
43420;BME280;29017;51.514;-0.178;2023-05-11T12:08:41;101127.25;;;17.97;59.71
43420;BME280;29017;51.514;-0.178;2023-05-11T12:11:09;101126.38;;;17.90;61.17
43420;BME280;29017;51.514;-0.178;2023-05-11T12:13:37;101127.59;;;17.87;60.63
43420;BME280;29017;51.514;-0.178;2023-05-11T12:16:13;101122.00;;;17.82;60.98
43420;BME280;29017;51.514;-0.178;2023-05-11T12:18:51;101130.00;;;17.82;61.22
43420;BME280;29017;51.514;-0.178;2023-05-11T12:21:19;101128.28;;;17.75;61.35
43420;BME280;29017;51.514;-0.178;2023-05-11T12:23:52;101128.88;;;17.70;62.69
43420;BME280;29017;51.514;-0.178;2023-05-11T12:26:22;101136.78;;;17.64;63.90
43420;BME280;29017;51.514;-0.178;2023-05-11T12:28:50;101125.41;;;17.55;64.76
43420;BME280;29017;51.514;-0.178;2023-05-11T12:31:18;101134.56;;;17.46;65.86
43420;BME280;29017;51.514;-0.178;2023-05-11T12:33:47;101120.59;;;17.23;66.82
43420;BME280;29017;51.514;-0.178;2023-05-11T12:36:16;101131.03;;;17.03;66.63
43420;BME280;29017;51.514;-0.178;2023-05-11T12:38:45;101133.00;;;16.80;67.62
43420;BME280;29017;51.514;-0.178;2023-05-11T12:41:21;101134.66;;;16.66;69.42
43420;BME280;29017;51.514;-0.178;2023-05-11T12:43:50;101135.72;;;16.57;69.93
43420;BME280;29017;51.514;-0.178;2023-05-11T12:46:22;101139.38;;;16.56;70.46
43420;BME280;29017;51.514;-0.178;2023-05-11T12:48:50;101134.84;;;16.50;72.14
43420;BME280;29017;51.514;-0.178;2023-05-11T12:54:09;101134.44;;;16.53;72.74
43420;BME280;29017;51.514;-0.178;2023-05-11T12:56:46;101131.41;;;16.56;71.54
43420;BME280;29017;51.514;-0.178;2023-05-11T12:59:28;101135.72;;;16.57;69.30
43420;BME280;29017;51.514;-0.178;2023-05-11T13:02:07;101137.25;;;16.59;68.49
43420;BME280;29017;51.514;-0.178;2023-05-11T13:04:35;101131.09;;;16.59;67.72
43420;BME280;29017;51.514;-0.178;2023-05-11T13:07:03;101130.63;;;16.55;68.05
43420;BME280;29017;51.514;-0.178;2023-05-11T13:09:31;101135.00;;;16.48;68.39
43420;BME280;29017;51.514;-0.178;2023-05-11T13:12:15;101132.91;;;16.44;69.40
43420;BME280;29017;51.514;-0.178;2023-05-11T13:14:49;101132.91;;;16.44;70.30
43420;BME280;29017;51.514;-0.178;2023-05-11T13:17:27;101132.47;;;16.40;71.26
43420;BME280;29017;51.514;-0.178;2023-05-11T13:19:56;101129.69;;;16.48;70.94
43420;BME280;29017;51.514;-0.178;2023-05-11T13:22:23;101118.91;;;16.50;71.88
43420;BME280;29017;51.514;-0.178;2023-05-11T13:28:03;101130.59;;;16.41;73.00
43420;BME280;29017;51.514;-0.178;2023-05-11T13:30:31;101119.19;;;16.40;75.08
43420;BME280;29017;51.514;-0.178;2023-05-11T13:33:01;101126.75;;;16.43;75.68
43420;BME280;29017;51.514;-0.178;2023-05-11T13:35:28;101133.25;;;16.41;74.64
43420;BME280;29017;51.514;-0.178;2023-05-11T13:37:59;101127.38;;;16.31;71.15
43420;BME280;29017;51.514;-0.178;2023-05-11T13:40:26;101134.06;;;16.26;70.43
43420;BME280;29017;51.514;-0.178;2023-05-11T13:42:54;101129.41;;;16.29;70.71
43420;BME280;29017;51.514;-0.178;2023-05-11T13:45:22;101121.81;;;16.25;71.66